首页
METAR-TAF:

METAR-TAF

机场 :

Port Hope, 密歇根州, 美国

纬度: 44-01-19N, 经度: 082-47-35W, 海拔: 179米

当前天气观测

该预报发布于49分钟前的02:51 UTC
风速11节,风向西转西北,有时为16节阵风
温度 -9°C
湿度 67%
气压 1032 hPa

METAR: KP58 120251Z AUTO 29011G16KT M09/M14 A3048 RMK AO1 SLP341 T10891144 51018

时间: 22:40 (03:40 UTC)


TAF: 丢失

超过4000个机场的气象观测和天气预报(METAR&TAF报告)。

可查询的气象台以黄色和红色小点在地图上表示。

将鼠标移到小点上方,可查看气象台名称。

然后点击查看天气观测和预报。

如需切换地图:点击带黑十字的绿色按钮放大地图;点击带横线的绿色按钮缩小地图;或者点击绿色箭头查看邻近地区的地图。


METAR-TAF: